createdAt,value
2022-12-04T00:01:53.982Z,97257.22
2022-12-04T00:06:02.234Z,97245.72
2022-12-04T00:10:03.911Z,97258.72
2022-12-04T00:14:07.374Z,97258.53
2022-12-04T00:18:10.314Z,97250.06
2022-12-04T00:22:11.680Z,97242.72
2022-12-04T00:26:14.070Z,97238.22
2022-12-04T00:30:15.505Z,97239.75
2022-12-04T00:34:18.300Z,97239.16
2022-12-04T00:38:19.657Z,97237.81
2022-12-04T00:42:21.046Z,97232.59
2022-12-04T00:46:22.835Z,97225.94
2022-12-04T00:50:25.630Z,97242.59
2022-12-04T00:54:27.024Z,97244.00
2022-12-04T00:58:28.393Z,97247.53
2022-12-04T01:02:30.532Z,97245.03
2022-12-04T01:06:34.069Z,97237.88
2022-12-04T01:10:37.585Z,97229.22
2022-12-04T01:14:38.988Z,97222.09
2022-12-04T01:18:40.378Z,97220.44
2022-12-04T01:22:43.140Z,97216.75
2022-12-04T01:26:44.513Z,97219.91
2022-12-04T01:30:45.919Z,97210.09
2022-12-04T01:34:47.355Z,97206.88
2022-12-04T01:38:50.094Z,97222.97
2022-12-04T01:42:51.506Z,97216.13
2022-12-04T01:46:53.585Z,97226.03
2022-12-04T01:50:58.243Z,97223.84
2022-12-04T01:55:01.232Z,97215.28
2022-12-04T01:59:03.001Z,97219.38
2022-12-04T02:03:04.427Z,97214.59
2022-12-04T02:07:05.917Z,97220.53
2022-12-04T02:11:12.985Z,97215.13
2022-12-04T02:15:16.813Z,97220.06
2022-12-04T02:19:31.655Z,97220.09
2022-12-04T02:23:47.895Z,97226.38
2022-12-04T02:27:58.822Z,97222.56
2022-12-04T02:32:06.876Z,97228.34
2022-12-04T02:36:11.508Z,97225.63
2022-12-04T02:40:16.833Z,97218.44
2022-12-04T02:44:22.216Z,97199.69
2022-12-04T02:48:26.222Z,97189.81
2022-12-04T02:52:29.656Z,97190.81
2022-12-04T02:56:32.440Z,97180.38
2022-12-04T03:00:35.710Z,97170.13
2022-12-04T03:04:38.831Z,97162.94
2022-12-04T03:08:43.696Z,97151.00
2022-12-04T03:12:47.266Z,97147.97
2022-12-04T03:16:52.040Z,97144.47
2022-12-04T03:20:59.725Z,97141.13
2022-12-04T03:25:03.177Z,97131.91
2022-12-04T03:29:07.561Z,97136.22
2022-12-04T03:33:13.011Z,97128.31
2022-12-04T03:37:15.978Z,97137.91
2022-12-04T03:41:23.623Z,97140.31
2022-12-04T03:45:26.752Z,97130.88
2022-12-04T03:49:32.960Z,97121.06
2022-12-04T03:53:38.116Z,97125.56
2022-12-04T03:57:42.204Z,97118.25
2022-12-04T04:01:46.452Z,97113.38
2022-12-04T04:05:53.918Z,97110.44
2022-12-04T04:10:02.792Z,97104.94
2022-12-04T04:14:06.970Z,97097.03
2022-12-04T04:18:08.349Z,97103.56
2022-12-04T04:22:11.218Z,97097.84
2022-12-04T04:26:13.109Z,97102.50
2022-12-04T04:30:14.546Z,97113.50
2022-12-04T04:34:20.654Z,97117.94
2022-12-04T04:38:27.637Z,97125.06
2022-12-04T04:42:32.880Z,97125.56
2022-12-04T04:46:36.448Z,97128.47
2022-12-04T04:50:39.017Z,97149.63
2022-12-04T04:54:41.939Z,97137.34
2022-12-04T04:58:43.527Z,97140.00
2022-12-04T05:02:45.276Z,97141.09
2022-12-04T05:06:46.673Z,97131.00
2022-12-04T05:10:49.403Z,97132.31
2022-12-04T05:14:50.759Z,97131.03
2022-12-04T05:18:52.172Z,97140.28
2022-12-04T05:22:53.575Z,97132.16
2022-12-04T05:26:56.327Z,97122.03
2022-12-04T05:30:58.608Z,97126.66
2022-12-04T05:35:00.007Z,97143.56
2022-12-04T05:39:01.366Z,97136.22
2022-12-04T05:43:04.093Z,97145.75
2022-12-04T05:47:05.554Z,97142.75
2022-12-04T05:51:07.406Z,97140.03
2022-12-04T05:55:08.942Z,97144.00
2022-12-04T05:59:11.664Z,97129.78
2022-12-04T06:03:13.044Z,97146.97
2022-12-04T06:07:14.401Z,97149.22
2022-12-04T06:11:16.832Z,97148.66
2022-12-04T06:15:19.551Z,97151.03
2022-12-04T06:19:21.620Z,97149.19
2022-12-04T06:23:23.009Z,97153.03
2022-12-04T06:27:28.437Z,97153.59
2022-12-04T06:31:31.653Z,97142.03
2022-12-04T06:35:33.052Z,97136.59
2022-12-04T06:39:34.413Z,97142.66
2022-12-04T06:43:36.060Z,97142.91
2022-12-04T06:47:38.788Z,97154.19
2022-12-04T06:51:40.188Z,97160.19
2022-12-04T06:55:47.108Z,97162.91
2022-12-04T06:59:48.489Z,97165.06
2022-12-04T07:03:52.018Z,97163.47
2022-12-04T07:07:53.469Z,97144.66
2022-12-04T07:11:54.851Z,97132.63
2022-12-04T07:15:59.240Z,97126.13
2022-12-04T07:20:01.972Z,97105.94
2022-12-04T07:24:03.482Z,97101.59
2022-12-04T07:28:05.025Z,97104.31
2022-12-04T07:32:06.481Z,97101.69
2022-12-04T07:36:12.299Z,97097.91
2022-12-04T07:40:13.887Z,97094.88
2022-12-04T07:44:15.259Z,97117.56
2022-12-04T07:48:16.601Z,97116.78
2022-12-04T07:52:19.331Z,97134.88
2022-12-04T07:56:20.723Z,97128.63
2022-12-04T08:00:22.248Z,97130.00
2022-12-04T08:04:23.640Z,97131.41
2022-12-04T08:08:26.376Z,97129.56
2022-12-04T08:12:27.758Z,97132.28
2022-12-04T08:16:30.168Z,97125.16
2022-12-04T08:20:31.664Z,97127.06
2022-12-04T08:24:34.406Z,97135.84
2022-12-04T08:28:36.430Z,97139.66
2022-12-04T08:32:37.797Z,97133.66
2022-12-04T08:36:39.190Z,97130.34
2022-12-04T08:40:41.936Z,97134.75
2022-12-04T08:44:43.280Z,97125.44
2022-12-04T08:48:45.052Z,97135.56
2022-12-04T08:52:46.427Z,97151.16
2022-12-04T08:56:49.184Z,97141.84
2022-12-04T09:00:50.562Z,97144.84
2022-12-04T09:04:51.970Z,97132.28
2022-12-04T09:08:53.889Z,97125.94
2022-12-04T09:12:56.648Z,97116.13
2022-12-04T09:16:58.029Z,97127.63
2022-12-04T09:21:00.536Z,97133.91
2022-12-04T09:25:01.885Z,97135.31
2022-12-04T09:29:05.144Z,97149.50
2022-12-04T09:33:06.515Z,97146.50
2022-12-04T09:37:07.888Z,97142.13
2022-12-04T09:41:16.645Z,97136.84
2022-12-04T09:45:22.072Z,97124.22
2022-12-04T09:49:25.532Z,97111.88
2022-12-04T09:53:28.752Z,97117.34
2022-12-04T09:57:35.382Z,97119.84
2022-12-04T10:01:41.766Z,97115.09
2022-12-04T10:05:48.195Z,97109.03
2022-12-04T10:09:54.863Z,97101.34
2022-12-04T10:14:14.028Z,97089.34
2022-12-04T10:18:23.041Z,97088.00
2022-12-04T10:22:28.993Z,97100.56
2022-12-04T10:26:32.812Z,97098.56
2022-12-04T10:30:36.121Z,97078.84
2022-12-04T10:34:44.088Z,97072.81
2022-12-04T10:38:49.528Z,97065.34
2022-12-04T10:42:54.185Z,97058.56
2022-12-04T10:46:56.609Z,97052.50
2022-12-04T10:50:59.501Z,97044.03
2022-12-04T10:55:01.210Z,97038.38
2022-12-04T10:59:03.875Z,97023.00
2022-12-04T11:03:09.343Z,97018.66
2022-12-04T11:07:20.618Z,97024.16
2022-12-04T11:11:26.633Z,97023.53
2022-12-04T11:15:28.491Z,97028.84
2022-12-04T11:19:31.503Z,97015.06
2022-12-04T11:23:35.213Z,97003.50
2022-12-04T11:27:37.316Z,97006.47
2022-12-04T11:31:38.760Z,96993.56
2022-12-04T11:35:40.232Z,96990.81
2022-12-04T11:39:44.920Z,96989.69
2022-12-04T11:43:48.922Z,96984.25
2022-12-04T11:47:53.736Z,96971.16
2022-12-04T11:52:00.835Z,96971.19
2022-12-04T11:56:09.578Z,96965.91
2022-12-04T12:00:13.279Z,96973.19
2022-12-04T12:04:25.752Z,96977.59
2022-12-04T12:08:32.550Z,96972.88
2022-12-04T12:12:41.079Z,96973.72
2022-12-04T12:16:51.617Z,96967.91
2022-12-04T12:20:56.612Z,96979.50
2022-12-04T12:25:02.158Z,96969.19
2022-12-04T12:29:13.960Z,96973.75
2022-12-04T12:33:18.719Z,96967.63
2022-12-04T12:37:23.869Z,96965.16
2022-12-04T12:41:27.669Z,96966.25
2022-12-04T12:45:33.562Z,96962.00
2022-12-04T12:49:38.124Z,96957.31
2022-12-04T12:53:41.746Z,96960.25
2022-12-04T12:57:45.151Z,96960.00
2022-12-04T13:01:52.767Z,96959.91
2022-12-04T13:05:59.604Z,96943.72
2022-12-04T13:10:03.471Z,96938.13
2022-12-04T13:14:04.934Z,96933.81
2022-12-04T13:18:10.621Z,96925.78
2022-12-04T13:22:16.484Z,96915.56
2022-12-04T13:26:24.370Z,96907.91
2022-12-04T13:30:30.967Z,96912.19
2022-12-04T13:34:53.123Z,96900.91
2022-12-04T13:39:03.109Z,96907.22
2022-12-04T13:43:23.062Z,96895.47
2022-12-04T13:47:28.490Z,96892.41
2022-12-04T13:51:37.963Z,96888.84
2022-12-04T13:55:39.970Z,96888.31
2022-12-04T13:59:41.740Z,96889.97
2022-12-04T14:03:46.992Z,96882.22
2022-12-04T14:08:00.804Z,96885.38
2022-12-04T14:12:05.734Z,96882.09
2022-12-04T14:16:08.984Z,96873.47
2022-12-04T14:20:21.943Z,96874.53
2022-12-04T14:24:30.542Z,96870.09
2022-12-04T14:28:42.133Z,96877.47
2022-12-04T14:32:44.124Z,96875.03
2022-12-04T14:36:47.077Z,96871.13
2022-12-04T14:40:51.506Z,96856.03
2022-12-04T14:44:54.307Z,96851.06
2022-12-04T14:48:59.681Z,96855.53
2022-12-04T14:53:08.974Z,96856.41
2022-12-04T14:57:22.943Z,96866.06
2022-12-04T15:01:29.082Z,96861.78
2022-12-04T15:05:31.855Z,96859.53
2022-12-04T15:09:33.191Z,96852.59
2022-12-04T15:13:36.888Z,96857.84
2022-12-04T15:17:38.310Z,96844.66
2022-12-04T15:21:40.963Z,96861.16
2022-12-04T15:25:45.498Z,96856.88
2022-12-04T15:29:48.847Z,96869.00
2022-12-04T15:33:52.499Z,96886.44
2022-12-04T15:37:54.075Z,96879.53
2022-12-04T15:42:03.673Z,96889.97
2022-12-04T15:46:13.382Z,96891.47
2022-12-04T15:50:20.867Z,96885.28
2022-12-04T15:54:24.524Z,96895.44
2022-12-04T15:58:26.980Z,96896.78
2022-12-04T16:02:30.817Z,96906.75
2022-12-04T16:06:33.429Z,96901.16
2022-12-04T16:10:35.787Z,96907.75
2022-12-04T16:14:37.280Z,96910.50
2022-12-04T16:18:40.602Z,96917.63
2022-12-04T16:22:42.211Z,96923.03
2022-12-04T16:26:43.601Z,96934.00
2022-12-04T16:30:45.069Z,96942.00
2022-12-04T16:34:48.178Z,96931.59
2022-12-04T16:38:49.535Z,96923.00
2022-12-04T16:42:50.862Z,96923.06
2022-12-04T16:46:52.291Z,96922.47
2022-12-04T16:50:55.035Z,96914.97
2022-12-04T16:55:00.512Z,96912.38
2022-12-04T16:59:08.955Z,96905.03
2022-12-04T17:03:16.950Z,96899.78
2022-12-04T17:07:20.107Z,96901.63
2022-12-04T17:11:21.422Z,96894.88
2022-12-04T17:15:22.959Z,96889.00
2022-12-04T17:19:24.307Z,96893.97
2022-12-04T17:23:27.055Z,96907.72
2022-12-04T17:27:28.415Z,96903.28
2022-12-04T17:31:29.826Z,96903.28
2022-12-04T17:35:31.388Z,96899.75
2022-12-04T17:39:34.310Z,96911.78
2022-12-04T17:43:36.041Z,96910.38
2022-12-04T17:47:37.610Z,96910.75
2022-12-04T17:51:38.985Z,96916.75
2022-12-04T17:55:41.793Z,96915.38
2022-12-04T17:59:43.172Z,96915.34
2022-12-04T18:03:48.751Z,96914.84
2022-12-04T18:07:50.241Z,96920.34
2022-12-04T18:11:53.240Z,96916.28
2022-12-04T18:15:54.711Z,96917.69
2022-12-04T18:19:59.778Z,96929.72
2022-12-04T18:24:05.028Z,96928.44
2022-12-04T18:28:07.744Z,96924.41
2022-12-04T18:32:09.097Z,96932.03
2022-12-04T18:36:12.624Z,96927.13
2022-12-04T18:40:13.995Z,96935.03
2022-12-04T18:44:17.100Z,96939.91
2022-12-04T18:48:18.482Z,96943.56
2022-12-04T18:52:19.850Z,96944.59
2022-12-04T18:56:21.575Z,96956.66
2022-12-04T19:00:24.332Z,96951.00
2022-12-04T19:04:25.735Z,96956.69
2022-12-04T19:08:32.720Z,96945.16
2022-12-04T19:12:36.871Z,96949.22
2022-12-04T19:16:39.733Z,96950.59
2022-12-04T19:20:41.224Z,96962.38
2022-12-04T19:24:42.614Z,96956.31
2022-12-04T19:28:43.964Z,96952.75
2022-12-04T19:32:46.712Z,96957.94
2022-12-04T19:36:48.061Z,96972.28
2022-12-04T19:40:49.435Z,96978.56
2022-12-04T19:44:50.786Z,96978.50
2022-12-04T19:48:54.914Z,96985.72
2022-12-04T19:52:56.288Z,96981.28
2022-12-04T19:56:57.641Z,96988.47
2022-12-04T20:00:59.125Z,96983.50
2022-12-04T20:05:01.908Z,96980.00
2022-12-04T20:09:04.497Z,96979.38
2022-12-04T20:13:05.904Z,96983.56
2022-12-04T20:17:07.319Z,96988.78
2022-12-04T20:21:10.698Z,96990.16
2022-12-04T20:25:12.043Z,96985.16
2022-12-04T20:29:14.606Z,96978.63
2022-12-04T20:33:15.993Z,96989.56
2022-12-04T20:37:18.813Z,96999.50
2022-12-04T20:41:20.174Z,97007.41
2022-12-04T20:45:21.569Z,97020.56
2022-12-04T20:49:22.896Z,97024.41
2022-12-04T20:53:25.631Z,97029.88
2022-12-04T20:57:27.020Z,97032.09
2022-12-04T21:01:28.844Z,97030.72
2022-12-04T21:05:30.259Z,97032.63
2022-12-04T21:09:32.963Z,97029.56
2022-12-04T21:13:34.507Z,97032.06
2022-12-04T21:17:35.852Z,97038.38
2022-12-04T21:21:37.609Z,97047.13
2022-12-04T21:25:40.319Z,97054.81
2022-12-04T21:29:41.639Z,97057.31
2022-12-04T21:33:42.997Z,97052.94
2022-12-04T21:37:44.369Z,97055.91
2022-12-04T21:41:47.114Z,97058.41
2022-12-04T21:45:55.874Z,97061.16
2022-12-04T21:49:57.639Z,97065.03
2022-12-04T21:53:59.293Z,97068.28
2022-12-04T21:58:02.141Z,97081.41
2022-12-04T22:02:03.890Z,97078.91
2022-12-04T22:06:05.435Z,97086.56
2022-12-04T22:10:10.912Z,97091.25
2022-12-04T22:14:13.936Z,97081.44
2022-12-04T22:18:15.321Z,97086.38
2022-12-04T22:22:16.677Z,97077.06
2022-12-04T22:26:18.376Z,97080.34
2022-12-04T22:30:21.119Z,97078.38
2022-12-04T22:34:22.508Z,97082.75
2022-12-04T22:38:23.873Z,97087.19
2022-12-04T22:42:25.204Z,97083.09
2022-12-04T22:46:27.975Z,97082.00
2022-12-04T22:50:29.357Z,97090.44
2022-12-04T22:54:30.791Z,97100.59
2022-12-04T22:58:32.168Z,97116.53
2022-12-04T23:02:44.287Z,97124.91
2022-12-04T23:06:45.675Z,97133.69
2022-12-04T23:10:47.013Z,97124.69
2022-12-04T23:14:48.413Z,97115.72
2022-12-04T23:18:51.325Z,97113.50
2022-12-04T23:22:52.690Z,97103.66
2022-12-04T23:26:54.136Z,97105.00
2022-12-04T23:30:55.483Z,97129.13
2022-12-04T23:34:58.207Z,97133.50
2022-12-04T23:39:00.442Z,97146.94
2022-12-04T23:43:01.791Z,97139.25
2022-12-04T23:47:03.307Z,97145.28
2022-12-04T23:51:06.399Z,97145.56
2022-12-04T23:55:08.128Z,97142.25
2022-12-04T23:59:09.512Z,97151.59
